sensor_id;sensor_type;location;lat;lon;timestamp;temperature;humidity
24224;DHT22;12359;49.716;9.212;2022-07-23T00:01:20;21.90;1.00
24224;DHT22;12359;49.716;9.212;2022-07-23T00:03:45;21.90;1.00
24224;DHT22;12359;49.716;9.212;2022-07-23T00:06:11;21.90;1.00
24224;DHT22;12359;49.716;9.212;2022-07-23T00:08:37;21.90;1.00
24224;DHT22;12359;49.716;9.212;2022-07-23T00:11:02;21.90;1.00
24224;DHT22;12359;49.716;9.212;2022-07-23T00:13:28;21.90;1.00
24224;DHT22;12359;49.716;9.212;2022-07-23T00:15:54;21.80;1.00
24224;DHT22;12359;49.716;9.212;2022-07-23T00:18:20;21.80;1.00
24224;DHT22;12359;49.716;9.212;2022-07-23T00:20:46;21.70;1.00
24224;DHT22;12359;49.716;9.212;2022-07-23T00:23:12;21.60;2.70
24224;DHT22;12359;49.716;9.212;2022-07-23T00:25:38;21.60;5.50
24224;DHT22;12359;49.716;9.212;2022-07-23T00:28:04;21.60;9.00
24224;DHT22;12359;49.716;9.212;2022-07-23T00:30:31;21.60;12.10
24224;DHT22;12359;49.716;9.212;2022-07-23T00:33:02;21.60;12.90
24224;DHT22;12359;49.716;9.212;2022-07-23T00:35:31;21.50;12.20
24224;DHT22;12359;49.716;9.212;2022-07-23T00:37:57;21.60;12.30
24224;DHT22;12359;49.716;9.212;2022-07-23T00:40:24;21.60;11.40
24224;DHT22;12359;49.716;9.212;2022-07-23T00:42:50;21.70;9.30
24224;DHT22;12359;49.716;9.212;2022-07-23T00:45:16;21.80;6.40
24224;DHT22;12359;49.716;9.212;2022-07-23T00:47:42;21.70;6.40
24224;DHT22;12359;49.716;9.212;2022-07-23T00:50:09;21.80;5.00
24224;DHT22;12359;49.716;9.212;2022-07-23T00:52:36;21.90;2.70
24224;DHT22;12359;49.716;9.212;2022-07-23T00:55:07;21.90;1.00
24224;DHT22;12359;49.716;9.212;2022-07-23T00:57:34;21.90;1.00
24224;DHT22;12359;49.716;9.212;2022-07-23T01:00:00;21.90;1.00
24224;DHT22;12359;49.716;9.212;2022-07-23T01:02:26;21.90;1.00
24224;DHT22;12359;49.716;9.212;2022-07-23T01:04:53;21.90;1.00
24224;DHT22;12359;49.716;9.212;2022-07-23T01:07:19;21.90;1.00
24224;DHT22;12359;49.716;9.212;2022-07-23T01:09:45;22.00;1.00
24224;DHT22;12359;49.716;9.212;2022-07-23T01:12:12;22.00;1.00
24224;DHT22;12359;49.716;9.212;2022-07-23T01:14:38;22.00;1.00
24224;DHT22;12359;49.716;9.212;2022-07-23T01:17:04;21.90;1.40
24224;DHT22;12359;49.716;9.212;2022-07-23T01:19:30;22.00;1.00
24224;DHT22;12359;49.716;9.212;2022-07-23T01:21:57;22.00;1.00
24224;DHT22;12359;49.716;9.212;2022-07-23T01:24:23;21.90;1.00
24224;DHT22;12359;49.716;9.212;2022-07-23T01:26:49;21.80;1.00
24224;DHT22;12359;49.716;9.212;2022-07-23T01:29:16;21.60;1.00
24224;DHT22;12359;49.716;9.212;2022-07-23T01:31:43;21.60;1.00
24224;DHT22;12359;49.716;9.212;2022-07-23T01:34:09;21.60;3.00
24224;DHT22;12359;49.716;9.212;2022-07-23T01:36:35;21.60;3.60
24224;DHT22;12359;49.716;9.212;2022-07-23T01:39:02;21.60;5.10
24224;DHT22;12359;49.716;9.212;2022-07-23T01:41:29;21.70;5.80
24224;DHT22;12359;49.716;9.212;2022-07-23T01:43:54;21.50;11.90
24224;DHT22;12359;49.716;9.212;2022-07-23T01:46:20;21.50;15.90
24224;DHT22;12359;49.716;9.212;2022-07-23T01:48:46;21.50;15.80
24224;DHT22;12359;49.716;9.212;2022-07-23T01:51:11;21.40;18.70
24224;DHT22;12359;49.716;9.212;2022-07-23T01:53:37;21.40;20.70
24224;DHT22;12359;49.716;9.212;2022-07-23T01:56:03;21.40;20.70
24224;DHT22;12359;49.716;9.212;2022-07-23T01:58:29;21.50;21.60
24224;DHT22;12359;49.716;9.212;2022-07-23T02:00:55;21.40;21.00
24224;DHT22;12359;49.716;9.212;2022-07-23T02:03:22;21.40;25.00
24224;DHT22;12359;49.716;9.212;2022-07-23T02:05:48;21.40;24.00
24224;DHT22;12359;49.716;9.212;2022-07-23T02:08:14;21.40;27.50
24224;DHT22;12359;49.716;9.212;2022-07-23T02:10:40;21.30;29.60
24224;DHT22;12359;49.716;9.212;2022-07-23T02:13:06;21.40;30.10
24224;DHT22;12359;49.716;9.212;2022-07-23T02:15:32;21.30;31.20
24224;DHT22;12359;49.716;9.212;2022-07-23T02:17:58;21.40;31.40
24224;DHT22;12359;49.716;9.212;2022-07-23T02:20:24;21.40;29.40
24224;DHT22;12359;49.716;9.212;2022-07-23T02:22:50;21.50;28.40
24224;DHT22;12359;49.716;9.212;2022-07-23T02:25:16;21.50;26.00
24224;DHT22;12359;49.716;9.212;2022-07-23T02:27:41;21.60;25.00
24224;DHT22;12359;49.716;9.212;2022-07-23T02:30:07;21.60;24.10
24224;DHT22;12359;49.716;9.212;2022-07-23T02:32:34;21.60;21.10
24224;DHT22;12359;49.716;9.212;2022-07-23T02:35:00;21.60;17.30
24224;DHT22;12359;49.716;9.212;2022-07-23T02:37:26;21.60;13.70
24224;DHT22;12359;49.716;9.212;2022-07-23T02:39:51;21.60;13.30
24224;DHT22;12359;49.716;9.212;2022-07-23T02:42:17;21.50;13.10
24224;DHT22;12359;49.716;9.212;2022-07-23T02:44:43;21.50;14.10
24224;DHT22;12359;49.716;9.212;2022-07-23T02:47:08;21.50;12.70
24224;DHT22;12359;49.716;9.212;2022-07-23T02:49:34;21.60;6.60
24224;DHT22;12359;49.716;9.212;2022-07-23T02:52:00;21.60;2.90
24224;DHT22;12359;49.716;9.212;2022-07-23T02:54:26;21.60;2.70
24224;DHT22;12359;49.716;9.212;2022-07-23T02:56:51;21.60;1.00
24224;DHT22;12359;49.716;9.212;2022-07-23T02:59:18;21.50;1.00
24224;DHT22;12359;49.716;9.212;2022-07-23T03:01:44;21.50;1.00
24224;DHT22;12359;49.716;9.212;2022-07-23T03:04:10;21.50;1.00
24224;DHT22;12359;49.716;9.212;2022-07-23T03:06:36;21.50;1.00
24224;DHT22;12359;49.716;9.212;2022-07-23T03:09:03;21.40;1.00
24224;DHT22;12359;49.716;9.212;2022-07-23T03:11:29;21.40;1.00
24224;DHT22;12359;49.716;9.212;2022-07-23T03:13:55;21.40;1.00
24224;DHT22;12359;49.716;9.212;2022-07-23T03:16:20;21.30;1.00
24224;DHT22;12359;49.716;9.212;2022-07-23T03:18:46;21.30;1.00
24224;DHT22;12359;49.716;9.212;2022-07-23T03:21:12;21.30;4.80
24224;DHT22;12359;49.716;9.212;2022-07-23T03:23:38;21.30;4.50
24224;DHT22;12359;49.716;9.212;2022-07-23T03:26:04;21.30;4.60
24224;DHT22;12359;49.716;9.212;2022-07-23T03:28:30;21.40;1.30
24224;DHT22;12359;49.716;9.212;2022-07-23T03:30:56;21.30;7.50
24224;DHT22;12359;49.716;9.212;2022-07-23T03:33:22;21.20;6.50
24224;DHT22;12359;49.716;9.212;2022-07-23T03:35:48;21.30;7.40
24224;DHT22;12359;49.716;9.212;2022-07-23T03:38:14;21.30;2.50
24224;DHT22;12359;49.716;9.212;2022-07-23T03:40:40;21.30;7.20
24224;DHT22;12359;49.716;9.212;2022-07-23T03:43:06;21.30;1.80
24224;DHT22;12359;49.716;9.212;2022-07-23T03:45:32;21.30;1.00
24224;DHT22;12359;49.716;9.212;2022-07-23T03:47:58;21.30;1.00
24224;DHT22;12359;49.716;9.212;2022-07-23T03:50:24;21.30;1.00
24224;DHT22;12359;49.716;9.212;2022-07-23T03:52:50;21.30;1.00
24224;DHT22;12359;49.716;9.212;2022-07-23T03:55:16;21.20;1.00
24224;DHT22;12359;49.716;9.212;2022-07-23T03:57:42;21.20;1.00
24224;DHT22;12359;49.716;9.212;2022-07-23T04:00:09;21.20;1.00
24224;DHT22;12359;49.716;9.212;2022-07-23T04:02:36;21.10;1.00
24224;DHT22;12359;49.716;9.212;2022-07-23T04:05:02;21.10;4.30
24224;DHT22;12359;49.716;9.212;2022-07-23T04:07:28;21.00;7.70
24224;DHT22;12359;49.716;9.212;2022-07-23T04:09:53;20.90;11.20
24224;DHT22;12359;49.716;9.212;2022-07-23T04:12:19;20.90;11.60
24224;DHT22;12359;49.716;9.212;2022-07-23T04:14:45;20.90;12.40
24224;DHT22;12359;49.716;9.212;2022-07-23T04:17:11;20.90;12.60
24224;DHT22;12359;49.716;9.212;2022-07-23T04:19:37;20.90;12.50
24224;DHT22;12359;49.716;9.212;2022-07-23T04:22:07;21.00;13.20
24224;DHT22;12359;49.716;9.212;2022-07-23T04:24:33;20.90;16.40
24224;DHT22;12359;49.716;9.212;2022-07-23T04:26:59;20.90;13.50
24224;DHT22;12359;49.716;9.212;2022-07-23T04:29:25;20.90;11.80
24224;DHT22;12359;49.716;9.212;2022-07-23T04:31:51;20.90;8.70
24224;DHT22;12359;49.716;9.212;2022-07-23T04:34:17;20.90;5.00
24224;DHT22;12359;49.716;9.212;2022-07-23T04:36:42;21.00;5.00
24224;DHT22;12359;49.716;9.212;2022-07-23T04:39:08;21.00;1.00
24224;DHT22;12359;49.716;9.212;2022-07-23T04:41:34;21.10;1.00
24224;DHT22;12359;49.716;9.212;2022-07-23T04:44:00;21.10;1.00
24224;DHT22;12359;49.716;9.212;2022-07-23T04:46:26;21.10;1.00
24224;DHT22;12359;49.716;9.212;2022-07-23T04:48:52;21.10;1.00
24224;DHT22;12359;49.716;9.212;2022-07-23T04:51:17;21.10;1.00
24224;DHT22;12359;49.716;9.212;2022-07-23T04:53:43;21.10;1.00
24224;DHT22;12359;49.716;9.212;2022-07-23T04:56:09;21.10;1.00
24224;DHT22;12359;49.716;9.212;2022-07-23T04:58:35;20.90;1.00
24224;DHT22;12359;49.716;9.212;2022-07-23T05:01:01;20.90;1.00
24224;DHT22;12359;49.716;9.212;2022-07-23T05:03:27;20.90;1.00
24224;DHT22;12359;49.716;9.212;2022-07-23T05:05:53;20.80;1.20
24224;DHT22;12359;49.716;9.212;2022-07-23T05:08:19;20.80;1.00
24224;DHT22;12359;49.716;9.212;2022-07-23T05:10:44;20.80;1.00
24224;DHT22;12359;49.716;9.212;2022-07-23T05:13:10;20.90;1.00
24224;DHT22;12359;49.716;9.212;2022-07-23T05:15:36;20.90;1.00
24224;DHT22;12359;49.716;9.212;2022-07-23T05:18:01;21.00;1.00
24224;DHT22;12359;49.716;9.212;2022-07-23T05:20:27;21.00;1.00
24224;DHT22;12359;49.716;9.212;2022-07-23T05:22:53;21.10;1.00
24224;DHT22;12359;49.716;9.212;2022-07-23T05:25:19;21.10;1.00
24224;DHT22;12359;49.716;9.212;2022-07-23T05:27:44;21.20;1.00
24224;DHT22;12359;49.716;9.212;2022-07-23T05:30:10;21.20;1.00
24224;DHT22;12359;49.716;9.212;2022-07-23T05:32:36;21.20;1.00
24224;DHT22;12359;49.716;9.212;2022-07-23T05:35:03;21.30;1.00
24224;DHT22;12359;49.716;9.212;2022-07-23T05:37:29;21.30;1.00
24224;DHT22;12359;49.716;9.212;2022-07-23T05:39:55;21.30;1.00
24224;DHT22;12359;49.716;9.212;2022-07-23T05:42:20;21.20;1.00
24224;DHT22;12359;49.716;9.212;2022-07-23T05:44:47;21.20;1.00
24224;DHT22;12359;49.716;9.212;2022-07-23T05:47:12;21.20;1.00
24224;DHT22;12359;49.716;9.212;2022-07-23T05:49:38;21.10;8.20
24224;DHT22;12359;49.716;9.212;2022-07-23T05:52:05;21.10;9.60
24224;DHT22;12359;49.716;9.212;2022-07-23T05:54:33;21.10;8.30
24224;DHT22;12359;49.716;9.212;2022-07-23T05:56:59;21.10;10.60
24224;DHT22;12359;49.716;9.212;2022-07-23T05:59:25;21.00;18.40
24224;DHT22;12359;49.716;9.212;2022-07-23T06:01:50;21.00;23.40
24224;DHT22;12359;49.716;9.212;2022-07-23T06:04:16;21.00;32.40
24224;DHT22;12359;49.716;9.212;2022-07-23T06:06:42;20.90;35.90
24224;DHT22;12359;49.716;9.212;2022-07-23T06:09:07;20.90;33.00
24224;DHT22;12359;49.716;9.212;2022-07-23T06:11:33;20.80;42.70
24224;DHT22;12359;49.716;9.212;2022-07-23T06:13:59;20.80;49.50
24224;DHT22;12359;49.716;9.212;2022-07-23T06:16:24;20.70;51.90
24224;DHT22;12359;49.716;9.212;2022-07-23T06:18:50;20.80;52.70
24224;DHT22;12359;49.716;9.212;2022-07-23T06:21:16;20.80;53.30
24224;DHT22;12359;49.716;9.212;2022-07-23T06:23:41;20.70;50.70
24224;DHT22;12359;49.716;9.212;2022-07-23T06:26:07;20.60;52.30
24224;DHT22;12359;49.716;9.212;2022-07-23T06:28:33;20.70;50.00
24224;DHT22;12359;49.716;9.212;2022-07-23T06:30:58;20.60;50.30
24224;DHT22;12359;49.716;9.212;2022-07-23T06:33:24;20.60;50.30
24224;DHT22;12359;49.716;9.212;2022-07-23T06:35:50;20.60;47.50
24224;DHT22;12359;49.716;9.212;2022-07-23T06:38:15;20.60;52.60
24224;DHT22;12359;49.716;9.212;2022-07-23T06:40:41;20.60;49.00
24224;DHT22;12359;49.716;9.212;2022-07-23T06:43:07;20.60;50.10
24224;DHT22;12359;49.716;9.212;2022-07-23T06:45:33;20.70;48.80
24224;DHT22;12359;49.716;9.212;2022-07-23T06:47:58;20.70;46.50
24224;DHT22;12359;49.716;9.212;2022-07-23T06:50:24;20.70;44.90
24224;DHT22;12359;49.716;9.212;2022-07-23T06:52:50;20.70;43.00
24224;DHT22;12359;49.716;9.212;2022-07-23T06:55:16;20.80;43.90
24224;DHT22;12359;49.716;9.212;2022-07-23T06:57:41;20.80;45.20
24224;DHT22;12359;49.716;9.212;2022-07-23T07:00:07;20.80;41.30
24224;DHT22;12359;49.716;9.212;2022-07-23T07:02:33;20.90;43.80
24224;DHT22;12359;49.716;9.212;2022-07-23T07:04:59;21.00;37.40
24224;DHT22;12359;49.716;9.212;2022-07-23T07:07:25;20.90;28.40
24224;DHT22;12359;49.716;9.212;2022-07-23T07:09:50;21.00;28.70
24224;DHT22;12359;49.716;9.212;2022-07-23T07:12:16;20.80;23.10
24224;DHT22;12359;49.716;9.212;2022-07-23T07:14:42;21.00;23.90
24224;DHT22;12359;49.716;9.212;2022-07-23T07:17:07;21.10;24.20
24224;DHT22;12359;49.716;9.212;2022-07-23T07:19:33;21.30;28.60
24224;DHT22;12359;49.716;9.212;2022-07-23T07:21:59;21.50;21.30
24224;DHT22;12359;49.716;9.212;2022-07-23T07:24:25;21.70;21.20
24224;DHT22;12359;49.716;9.212;2022-07-23T07:26:50;21.80;16.70
24224;DHT22;12359;49.716;9.212;2022-07-23T07:29:16;22.10;11.50
24224;DHT22;12359;49.716;9.212;2022-07-23T07:31:42;22.60;1.30
24224;DHT22;12359;49.716;9.212;2022-07-23T07:34:07;22.90;1.00
24224;DHT22;12359;49.716;9.212;2022-07-23T07:36:33;23.00;1.00
24224;DHT22;12359;49.716;9.212;2022-07-23T07:39:00;23.10;1.00
24224;DHT22;12359;49.716;9.212;2022-07-23T07:41:25;23.20;1.00
24224;DHT22;12359;49.716;9.212;2022-07-23T07:43:52;23.10;1.00
24224;DHT22;12359;49.716;9.212;2022-07-23T07:46:17;23.10;1.00
24224;DHT22;12359;49.716;9.212;2022-07-23T07:48:43;23.10;1.00
24224;DHT22;12359;49.716;9.212;2022-07-23T07:51:09;23.00;1.00
24224;DHT22;12359;49.716;9.212;2022-07-23T07:53:34;22.90;1.00
24224;DHT22;12359;49.716;9.212;2022-07-23T07:56:00;22.80;1.00
24224;DHT22;12359;49.716;9.212;2022-07-23T07:58:26;22.70;1.00
24224;DHT22;12359;49.716;9.212;2022-07-23T08:00:52;22.60;1.00
24224;DHT22;12359;49.716;9.212;2022-07-23T08:03:18;22.40;1.00
24224;DHT22;12359;49.716;9.212;2022-07-23T08:05:43;22.40;1.00
24224;DHT22;12359;49.716;9.212;2022-07-23T08:08:09;22.30;1.00
24224;DHT22;12359;49.716;9.212;2022-07-23T08:10:40;22.30;1.00
24224;DHT22;12359;49.716;9.212;2022-07-23T08:13:06;22.30;1.00
24224;DHT22;12359;49.716;9.212;2022-07-23T08:15:32;22.30;1.00
24224;DHT22;12359;49.716;9.212;2022-07-23T08:17:58;22.30;1.00
24224;DHT22;12359;49.716;9.212;2022-07-23T08:20:24;22.30;1.00
24224;DHT22;12359;49.716;9.212;2022-07-23T08:25:47;22.50;1.00
24224;DHT22;12359;49.716;9.212;2022-07-23T08:28:13;22.60;1.00
24224;DHT22;12359;49.716;9.212;2022-07-23T08:30:41;22.60;1.00
24224;DHT22;12359;49.716;9.212;2022-07-23T08:33:10;22.70;1.00
24224;DHT22;12359;49.716;9.212;2022-07-23T08:35:45;22.90;1.00
24224;DHT22;12359;49.716;9.212;2022-07-23T08:38:13;23.00;1.00
24224;DHT22;12359;49.716;9.212;2022-07-23T08:40:42;23.00;1.00
24224;DHT22;12359;49.716;9.212;2022-07-23T08:43:10;23.10;1.00
24224;DHT22;12359;49.716;9.212;2022-07-23T08:45:41;23.10;1.00
24224;DHT22;12359;49.716;9.212;2022-07-23T08:48:10;23.30;1.00
24224;DHT22;12359;49.716;9.212;2022-07-23T08:50:37;23.50;1.00
24224;DHT22;12359;49.716;9.212;2022-07-23T08:53:06;24.00;1.00
24224;DHT22;12359;49.716;9.212;2022-07-23T08:55:32;25.00;99.90
24224;DHT22;12359;49.716;9.212;2022-07-23T08:57:58;25.90;99.90
24224;DHT22;12359;49.716;9.212;2022-07-23T09:00:24;26.20;99.90
24224;DHT22;12359;49.716;9.212;2022-07-23T09:02:50;26.20;64.90
24224;DHT22;12359;49.716;9.212;2022-07-23T09:05:16;25.90;99.90
24224;DHT22;12359;49.716;9.212;2022-07-23T09:10:59;26.60;99.90
24224;DHT22;12359;49.716;9.212;2022-07-23T09:13:29;26.50;1.00
24224;DHT22;12359;49.716;9.212;2022-07-23T09:16:00;26.40;1.00
24224;DHT22;12359;49.716;9.212;2022-07-23T09:18:31;26.50;1.00
24224;DHT22;12359;49.716;9.212;2022-07-23T09:21:15;27.10;60.50
24224;DHT22;12359;49.716;9.212;2022-07-23T09:29:17;29.30;96.90
24224;DHT22;12359;49.716;9.212;2022-07-23T09:31:47;30.10;93.60
24224;DHT22;12359;49.716;9.212;2022-07-23T09:34:23;30.50;90.40
24224;DHT22;12359;49.716;9.212;2022-07-23T09:36:56;30.60;84.40
24224;DHT22;12359;49.716;9.212;2022-07-23T09:39:31;30.70;81.40
24224;DHT22;12359;49.716;9.212;2022-07-23T09:41:58;30.10;78.90
24224;DHT22;12359;49.716;9.212;2022-07-23T09:44:24;30.50;80.40
24224;DHT22;12359;49.716;9.212;2022-07-23T09:46:51;30.40;80.80
24224;DHT22;12359;49.716;9.212;2022-07-23T09:49:23;30.60;82.60
24224;DHT22;12359;49.716;9.212;2022-07-23T09:51:56;30.90;77.20
24224;DHT22;12359;49.716;9.212;2022-07-23T09:54:29;31.20;76.70
24224;DHT22;12359;49.716;9.212;2022-07-23T09:57:00;31.40;76.50
24224;DHT22;12359;49.716;9.212;2022-07-23T09:59:29;31.60;74.20
24224;DHT22;12359;49.716;9.212;2022-07-23T10:01:58;31.70;75.00
24224;DHT22;12359;49.716;9.212;2022-07-23T10:04:27;31.80;71.20
24224;DHT22;12359;49.716;9.212;2022-07-23T10:06:56;31.60;70.70
24224;DHT22;12359;49.716;9.212;2022-07-23T10:09:29;31.70;68.80
24224;DHT22;12359;49.716;9.212;2022-07-23T10:11:57;32.20;67.80
24224;DHT22;12359;49.716;9.212;2022-07-23T10:14:43;32.10;68.20
24224;DHT22;12359;49.716;9.212;2022-07-23T10:17:10;32.00;68.40
24224;DHT22;12359;49.716;9.212;2022-07-23T10:19:35;31.90;67.00
24224;DHT22;12359;49.716;9.212;2022-07-23T10:22:15;32.00;67.00
24224;DHT22;12359;49.716;9.212;2022-07-23T10:39:08;32.80;64.70
24224;DHT22;12359;49.716;9.212;2022-07-23T10:41:41;32.80;62.30
24224;DHT22;12359;49.716;9.212;2022-07-23T10:44:15;33.00;62.40
24224;DHT22;12359;49.716;9.212;2022-07-23T10:49:35;32.70;61.50
24224;DHT22;12359;49.716;9.212;2022-07-23T10:54:43;33.00;62.40
24224;DHT22;12359;49.716;9.212;2022-07-23T10:57:10;33.20;61.40
24224;DHT22;12359;49.716;9.212;2022-07-23T11:02:42;32.90;60.00
24224;DHT22;12359;49.716;9.212;2022-07-23T11:05:11;32.80;59.20
24224;DHT22;12359;49.716;9.212;2022-07-23T11:10:43;32.80;59.60
24224;DHT22;12359;49.716;9.212;2022-07-23T11:26:53;31.70;61.70
24224;DHT22;12359;49.716;9.212;2022-07-23T11:31:59;32.50;58.90
24224;DHT22;12359;49.716;9.212;2022-07-23T11:36:57;31.60;58.80
24224;DHT22;12359;49.716;9.212;2022-07-23T11:39:25;31.20;59.60
24224;DHT22;12359;49.716;9.212;2022-07-23T11:41:52;30.70;61.30
24224;DHT22;12359;49.716;9.212;2022-07-23T11:44:38;30.40;61.70
24224;DHT22;12359;49.716;9.212;2022-07-23T11:47:06;30.00;62.70
24224;DHT22;12359;49.716;9.212;2022-07-23T11:49:32;30.00;64.20
24224;DHT22;12359;49.716;9.212;2022-07-23T11:52:05;29.80;63.70
24224;DHT22;12359;49.716;9.212;2022-07-23T11:54:36;30.00;66.00
24224;DHT22;12359;49.716;9.212;2022-07-23T11:57:03;30.40;63.20
24224;DHT22;12359;49.716;9.212;2022-07-23T11:59:31;30.30;63.40
24224;DHT22;12359;49.716;9.212;2022-07-23T12:02:04;30.00;63.70
24224;DHT22;12359;49.716;9.212;2022-07-23T12:04:42;29.90;62.60
24224;DHT22;12359;49.716;9.212;2022-07-23T12:10:15;30.10;63.00
24224;DHT22;12359;49.716;9.212;2022-07-23T12:12:44;30.00;63.40
24224;DHT22;12359;49.716;9.212;2022-07-23T12:15:15;30.30;65.90
24224;DHT22;12359;49.716;9.212;2022-07-23T12:17:43;30.60;63.10
24224;DHT22;12359;49.716;9.212;2022-07-23T12:20:13;30.70;61.60
24224;DHT22;12359;49.716;9.212;2022-07-23T12:22:43;30.70;60.10
24224;DHT22;12359;49.716;9.212;2022-07-23T12:25:12;30.20;61.10
24224;DHT22;12359;49.716;9.212;2022-07-23T12:27:39;29.90;60.90
24224;DHT22;12359;49.716;9.212;2022-07-23T12:30:24;29.70;61.50
24224;DHT22;12359;49.716;9.212;2022-07-23T12:32:53;29.50;61.60
24224;DHT22;12359;49.716;9.212;2022-07-23T12:35:21;29.70;63.70
24224;DHT22;12359;49.716;9.212;2022-07-23T12:37:50;29.80;63.60
24224;DHT22;12359;49.716;9.212;2022-07-23T12:40:31;30.20;62.80
24224;DHT22;12359;49.716;9.212;2022-07-23T12:43:03;30.40;62.40
24224;DHT22;12359;49.716;9.212;2022-07-23T12:45:43;30.40;60.70
24224;DHT22;12359;49.716;9.212;2022-07-23T12:48:25;30.40;63.60
24224;DHT22;12359;49.716;9.212;2022-07-23T12:50:53;30.20;60.10
24224;DHT22;12359;49.716;9.212;2022-07-23T12:55:47;29.90;58.50
24224;DHT22;12359;49.716;9.212;2022-07-23T13:03:32;30.50;58.10
24224;DHT22;12359;49.716;9.212;2022-07-23T13:05:59;30.30;58.40
24224;DHT22;12359;49.716;9.212;2022-07-23T13:08:28;30.10;58.80
24224;DHT22;12359;49.716;9.212;2022-07-23T13:10:54;29.80;59.20
24224;DHT22;12359;49.716;9.212;2022-07-23T13:13:22;29.70;60.40
24224;DHT22;12359;49.716;9.212;2022-07-23T13:15:48;29.70;60.90
24224;DHT22;12359;49.716;9.212;2022-07-23T13:18:14;29.60;60.30
24224;DHT22;12359;49.716;9.212;2022-07-23T13:20:40;29.70;60.40
24224;DHT22;12359;49.716;9.212;2022-07-23T13:23:07;29.90;59.00
24224;DHT22;12359;49.716;9.212;2022-07-23T13:25:33;30.00;58.40
24224;DHT22;12359;49.716;9.212;2022-07-23T13:27:59;29.80;58.70
24224;DHT22;12359;49.716;9.212;2022-07-23T13:30:24;29.70;59.30
24224;DHT22;12359;49.716;9.212;2022-07-23T13:32:50;29.50;58.30
24224;DHT22;12359;49.716;9.212;2022-07-23T13:35:16;29.30;59.10
24224;DHT22;12359;49.716;9.212;2022-07-23T13:37:41;29.30;59.50
24224;DHT22;12359;49.716;9.212;2022-07-23T13:40:07;29.30;59.30
24224;DHT22;12359;49.716;9.212;2022-07-23T13:42:33;29.20;59.90
24224;DHT22;12359;49.716;9.212;2022-07-23T13:44:59;29.00;59.50
24224;DHT22;12359;49.716;9.212;2022-07-23T13:47:25;29.00;59.50
24224;DHT22;12359;49.716;9.212;2022-07-23T13:49:50;29.20;60.00
24224;DHT22;12359;49.716;9.212;2022-07-23T13:52:16;29.30;58.70
24224;DHT22;12359;49.716;9.212;2022-07-23T13:54:42;29.50;59.30
24224;DHT22;12359;49.716;9.212;2022-07-23T13:57:07;29.90;59.50
24224;DHT22;12359;49.716;9.212;2022-07-23T13:59:35;30.00;57.70
24224;DHT22;12359;49.716;9.212;2022-07-23T14:02:04;30.20;58.60
24224;DHT22;12359;49.716;9.212;2022-07-23T14:04:30;30.60;58.80
24224;DHT22;12359;49.716;9.212;2022-07-23T14:06:56;30.90;57.30
24224;DHT22;12359;49.716;9.212;2022-07-23T14:09:23;31.20;57.30
24224;DHT22;12359;49.716;9.212;2022-07-23T14:11:49;31.40;56.90
24224;DHT22;12359;49.716;9.212;2022-07-23T14:14:17;31.50;56.60
24224;DHT22;12359;49.716;9.212;2022-07-23T14:16:43;31.50;55.20
24224;DHT22;12359;49.716;9.212;2022-07-23T14:19:09;31.30;56.90
24224;DHT22;12359;49.716;9.212;2022-07-23T14:21:35;31.20;56.40
24224;DHT22;12359;49.716;9.212;2022-07-23T14:24:00;30.90;56.20
24224;DHT22;12359;49.716;9.212;2022-07-23T14:26:26;30.60;56.90
24224;DHT22;12359;49.716;9.212;2022-07-23T14:28:52;30.20;56.20
24224;DHT22;12359;49.716;9.212;2022-07-23T14:31:18;29.90;56.00
24224;DHT22;12359;49.716;9.212;2022-07-23T14:33:44;29.90;56.70
24224;DHT22;12359;49.716;9.212;2022-07-23T14:36:09;29.90;57.50
24224;DHT22;12359;49.716;9.212;2022-07-23T14:38:35;30.00;57.60
24224;DHT22;12359;49.716;9.212;2022-07-23T14:41:01;30.20;57.20
24224;DHT22;12359;49.716;9.212;2022-07-23T14:43:26;30.60;57.60
24224;DHT22;12359;49.716;9.212;2022-07-23T14:45:52;30.80;56.70
24224;DHT22;12359;49.716;9.212;2022-07-23T14:48:18;31.10;56.20
24224;DHT22;12359;49.716;9.212;2022-07-23T14:50:43;30.90;55.10
24224;DHT22;12359;49.716;9.212;2022-07-23T14:53:09;31.00;55.30
24224;DHT22;12359;49.716;9.212;2022-07-23T14:55:35;31.10;54.90
24224;DHT22;12359;49.716;9.212;2022-07-23T14:58:00;31.20;55.20
24224;DHT22;12359;49.716;9.212;2022-07-23T15:00:26;31.20;55.10
24224;DHT22;12359;49.716;9.212;2022-07-23T15:02:53;31.10;55.10
24224;DHT22;12359;49.716;9.212;2022-07-23T15:05:19;30.80;54.90
24224;DHT22;12359;49.716;9.212;2022-07-23T15:07:45;30.50;55.90
24224;DHT22;12359;49.716;9.212;2022-07-23T15:10:11;30.50;56.50
24224;DHT22;12359;49.716;9.212;2022-07-23T15:12:36;30.50;56.10
24224;DHT22;12359;49.716;9.212;2022-07-23T15:15:03;30.70;55.50
24224;DHT22;12359;49.716;9.212;2022-07-23T15:17:29;30.60;55.60
24224;DHT22;12359;49.716;9.212;2022-07-23T15:19:55;30.50;56.80
24224;DHT22;12359;49.716;9.212;2022-07-23T15:22:21;30.50;56.20
24224;DHT22;12359;49.716;9.212;2022-07-23T15:24:46;30.20;55.80
24224;DHT22;12359;49.716;9.212;2022-07-23T15:27:12;30.10;55.40
24224;DHT22;12359;49.716;9.212;2022-07-23T15:29:38;30.20;56.70
24224;DHT22;12359;49.716;9.212;2022-07-23T15:32:04;30.20;56.60
24224;DHT22;12359;49.716;9.212;2022-07-23T15:34:30;30.20;56.50
24224;DHT22;12359;49.716;9.212;2022-07-23T15:36:59;30.10;55.90
24224;DHT22;12359;49.716;9.212;2022-07-23T15:39:25;29.90;55.70
24224;DHT22;12359;49.716;9.212;2022-07-23T15:41:50;29.80;56.20
24224;DHT22;12359;49.716;9.212;2022-07-23T15:44:16;29.80;55.80
24224;DHT22;12359;49.716;9.212;2022-07-23T15:46:42;29.80;56.00
24224;DHT22;12359;49.716;9.212;2022-07-23T15:49:07;29.80;56.00
24224;DHT22;12359;49.716;9.212;2022-07-23T15:51:34;29.70;56.20
24224;DHT22;12359;49.716;9.212;2022-07-23T15:53:59;29.50;57.10
24224;DHT22;12359;49.716;9.212;2022-07-23T15:56:25;29.40;56.20
24224;DHT22;12359;49.716;9.212;2022-07-23T15:58:51;29.40;57.10
24224;DHT22;12359;49.716;9.212;2022-07-23T16:01:16;29.50;56.90
24224;DHT22;12359;49.716;9.212;2022-07-23T16:03:42;29.40;57.20
24224;DHT22;12359;49.716;9.212;2022-07-23T16:06:08;29.30;55.90
24224;DHT22;12359;49.716;9.212;2022-07-23T16:08:34;29.20;56.40
24224;DHT22;12359;49.716;9.212;2022-07-23T16:11:00;29.00;57.00
24224;DHT22;12359;49.716;9.212;2022-07-23T16:13:26;29.00;57.10
24224;DHT22;12359;49.716;9.212;2022-07-23T16:15:52;28.90;57.00
24224;DHT22;12359;49.716;9.212;2022-07-23T16:18:21;28.90;57.30
24224;DHT22;12359;49.716;9.212;2022-07-23T16:20:51;28.90;57.50
24224;DHT22;12359;49.716;9.212;2022-07-23T16:23:17;28.90;57.50
24224;DHT22;12359;49.716;9.212;2022-07-23T16:25:43;29.00;58.30
24224;DHT22;12359;49.716;9.212;2022-07-23T16:28:09;29.10;58.10
24224;DHT22;12359;49.716;9.212;2022-07-23T16:30:35;29.10;58.20
24224;DHT22;12359;49.716;9.212;2022-07-23T16:33:01;29.10;57.40
24224;DHT22;12359;49.716;9.212;2022-07-23T16:35:27;29.10;57.60
24224;DHT22;12359;49.716;9.212;2022-07-23T16:37:53;29.00;57.40
24224;DHT22;12359;49.716;9.212;2022-07-23T16:40:19;28.90;57.80
24224;DHT22;12359;49.716;9.212;2022-07-23T16:42:45;28.90;58.00